createdAt,value
2018-12-17T00:02:23.023Z,3.46
2018-12-17T00:04:50.630Z,3.48
2018-12-17T00:07:18.077Z,3.46
2018-12-17T00:09:45.669Z,3.50
2018-12-17T00:12:16.551Z,3.53
2018-12-17T00:14:42.863Z,3.55
2018-12-17T00:17:10.391Z,3.57
2018-12-17T00:19:37.972Z,3.56
2018-12-17T00:22:06.084Z,3.57
2018-12-17T00:24:33.727Z,3.58
2018-12-17T00:27:01.269Z,3.58
2018-12-17T00:29:28.774Z,3.59
2018-12-17T00:31:56.390Z,3.55
2018-12-17T00:34:23.923Z,3.54
2018-12-17T00:36:51.383Z,3.56
2018-12-17T00:39:18.841Z,3.58
2018-12-17T00:41:46.313Z,3.60
2018-12-17T00:44:13.793Z,3.61
2018-12-17T00:46:41.333Z,3.63
2018-12-17T00:49:08.825Z,3.58
2018-12-17T00:51:36.322Z,3.58
2018-12-17T00:54:03.883Z,3.58
2018-12-17T00:56:31.590Z,3.58
2018-12-17T00:58:59.143Z,3.61
2018-12-17T01:01:26.734Z,3.63
2018-12-17T01:03:54.230Z,3.64
2018-12-17T01:06:22.131Z,3.62
2018-12-17T01:08:49.679Z,3.57
2018-12-17T01:11:18.141Z,3.57
2018-12-17T01:13:45.622Z,3.62
2018-12-17T01:16:13.170Z,3.62
2018-12-17T01:18:40.649Z,3.62
2018-12-17T01:21:09.795Z,3.68
2018-12-17T01:23:37.270Z,3.70
2018-12-17T01:26:05.971Z,3.73
2018-12-17T01:28:33.890Z,3.75
2018-12-17T01:31:01.378Z,3.73
2018-12-17T01:33:30.260Z,3.73
2018-12-17T01:35:57.982Z,3.72
2018-12-17T01:38:25.450Z,3.71
2018-12-17T01:40:53.432Z,3.72
2018-12-17T01:43:20.905Z,3.73
2018-12-17T01:45:48.376Z,3.75
2018-12-17T01:48:15.874Z,3.76
2018-12-17T01:50:43.343Z,3.76
2018-12-17T01:53:10.897Z,3.77
2018-12-17T01:55:38.462Z,3.74
2018-12-17T01:58:05.983Z,3.74
2018-12-17T02:00:33.543Z,3.77
2018-12-17T02:03:01.086Z,3.73
2018-12-17T02:05:28.781Z,3.74
2018-12-17T02:07:56.291Z,3.71
2018-12-17T02:10:24.027Z,3.71
2018-12-17T02:12:51.483Z,3.68
2018-12-17T02:15:18.946Z,3.66
2018-12-17T02:17:46.407Z,3.68
2018-12-17T02:20:13.955Z,3.69
2018-12-17T02:22:41.562Z,3.71
2018-12-17T02:25:09.099Z,3.68
2018-12-17T02:27:36.567Z,3.64
2018-12-17T02:30:05.929Z,3.62
2018-12-17T02:41:10.907Z,3.58
2018-12-17T02:43:38.384Z,3.59
2018-12-17T02:46:05.855Z,3.53
2018-12-17T02:48:33.529Z,3.53
2018-12-17T02:51:01.010Z,3.55
2018-12-17T02:53:28.469Z,3.57
2018-12-17T02:55:56.081Z,3.56
2018-12-17T02:58:23.678Z,3.57
2018-12-17T03:00:51.184Z,3.55
2018-12-17T03:03:18.748Z,3.56
2018-12-17T03:05:46.250Z,3.58
2018-12-17T03:08:13.848Z,3.57
2018-12-17T03:10:41.399Z,3.47
2018-12-17T03:13:08.871Z,3.47
2018-12-17T03:15:36.324Z,3.53
2018-12-17T03:18:04.009Z,3.54
2018-12-17T03:20:31.681Z,3.54
2018-12-17T03:22:59.166Z,3.61
2018-12-17T03:25:26.708Z,3.62
2018-12-17T03:27:54.317Z,3.57
2018-12-17T03:30:21.808Z,3.54
2018-12-17T03:32:49.300Z,3.53
2018-12-17T03:35:16.758Z,3.57
2018-12-17T03:37:44.248Z,3.60
2018-12-17T03:40:11.860Z,3.64
2018-12-17T03:42:39.384Z,3.66
2018-12-17T03:45:07.063Z,3.67
2018-12-17T03:47:34.518Z,3.63
2018-12-17T03:50:01.985Z,3.64
2018-12-17T03:52:29.439Z,3.64
2018-12-17T03:54:57.009Z,3.66
2018-12-17T03:57:24.472Z,3.67
2018-12-17T03:59:52.069Z,3.70
2018-12-17T04:02:19.551Z,3.71
2018-12-17T04:04:47.682Z,3.73
2018-12-17T04:07:15.201Z,3.74
2018-12-17T04:09:42.735Z,3.71
2018-12-17T04:12:10.199Z,3.72
2018-12-17T04:14:37.655Z,3.70
2018-12-17T04:17:05.371Z,3.73
2018-12-17T04:19:32.850Z,3.71
2018-12-17T04:22:00.471Z,3.76
2018-12-17T04:24:28.372Z,3.75
2018-12-17T04:26:55.904Z,3.76
2018-12-17T04:29:23.459Z,3.76
2018-12-17T04:31:51.267Z,3.80
2018-12-17T04:34:18.814Z,3.79
2018-12-17T04:36:46.278Z,3.79
2018-12-17T04:39:14.037Z,3.80
2018-12-17T04:41:41.639Z,3.79
2018-12-17T04:44:09.179Z,3.80
2018-12-17T04:46:36.767Z,3.78
2018-12-17T04:49:04.332Z,3.78
2018-12-17T04:51:31.966Z,3.78
2018-12-17T04:54:02.719Z,3.79
2018-12-17T04:56:30.545Z,3.82
2018-12-17T04:58:58.025Z,3.83
2018-12-17T05:01:25.544Z,3.83
2018-12-17T05:03:52.997Z,3.84
2018-12-17T05:06:20.553Z,3.86
2018-12-17T05:08:48.879Z,3.85
2018-12-17T05:11:16.355Z,3.89
2018-12-17T05:13:43.792Z,3.92
2018-12-17T05:16:11.327Z,3.93
2018-12-17T05:18:38.788Z,3.94
2018-12-17T05:21:06.286Z,3.96
2018-12-17T05:23:33.805Z,3.95
2018-12-17T05:26:01.280Z,3.97
2018-12-17T05:28:28.746Z,3.98
2018-12-17T05:30:56.223Z,3.97
2018-12-17T05:33:23.955Z,3.98
2018-12-17T05:35:51.428Z,3.98
2018-12-17T05:38:18.872Z,3.95
2018-12-17T05:40:46.531Z,3.89
2018-12-17T05:43:14.107Z,3.86
2018-12-17T05:45:41.574Z,3.84
2018-12-17T05:48:09.044Z,3.62
2018-12-17T05:50:36.595Z,3.55
2018-12-17T05:53:04.275Z,3.54
2018-12-17T05:55:31.800Z,3.58
2018-12-17T05:57:59.399Z,3.66
2018-12-17T06:00:27.412Z,3.70
2018-12-17T06:02:54.972Z,3.68
2018-12-17T06:05:22.468Z,3.72
2018-12-17T06:07:50.048Z,3.74
2018-12-17T06:10:17.563Z,3.72
2018-12-17T06:12:45.035Z,3.76
2018-12-17T06:15:12.496Z,3.72
2018-12-17T06:17:40.281Z,3.74
2018-12-17T06:20:08.109Z,3.77
2018-12-17T06:22:35.721Z,3.81
2018-12-17T06:25:03.496Z,3.79
2018-12-17T06:27:36.760Z,3.82
2018-12-17T06:30:00.685Z,3.84
2018-12-17T06:32:28.180Z,3.85
2018-12-17T06:34:55.749Z,3.90
2018-12-17T06:37:29.259Z,3.82
2018-12-17T06:39:57.159Z,3.85
2018-12-17T06:42:24.700Z,3.86
2018-12-17T06:44:53.466Z,3.87
2018-12-17T06:47:21.000Z,3.87
2018-12-17T06:49:48.581Z,3.74
2018-12-17T06:52:16.122Z,3.70
2018-12-17T06:54:43.736Z,3.76
2018-12-17T06:57:11.292Z,3.73
2018-12-17T06:59:42.649Z,3.64
2018-12-17T07:02:08.787Z,3.59
2018-12-17T07:04:36.704Z,3.63
2018-12-17T07:07:04.214Z,3.71
2018-12-17T07:09:31.743Z,3.78
2018-12-17T07:11:59.271Z,3.84
2018-12-17T07:14:26.831Z,3.89
2018-12-17T07:16:54.392Z,3.92
2018-12-17T07:19:21.990Z,3.98
2018-12-17T07:21:49.710Z,3.98
2018-12-17T07:24:17.238Z,3.98
2018-12-17T07:26:44.720Z,4.01
2018-12-17T07:29:12.243Z,3.99
2018-12-17T07:31:39.835Z,4.02
2018-12-17T07:34:08.684Z,4.07
2018-12-17T07:36:40.771Z,4.11
2018-12-17T07:39:08.282Z,4.14
2018-12-17T07:41:36.431Z,4.11
2018-12-17T07:44:04.103Z,4.06
2018-12-17T07:46:32.252Z,4.01
2018-12-17T07:48:59.892Z,3.95
2018-12-17T07:51:27.451Z,3.86
2018-12-17T07:53:54.965Z,3.86
2018-12-17T07:56:22.461Z,3.89
2018-12-17T07:58:49.958Z,3.82
2018-12-17T08:01:17.719Z,3.79
2018-12-17T08:03:45.192Z,3.76
2018-12-17T08:06:12.667Z,3.71
2018-12-17T08:08:40.207Z,3.80
2018-12-17T08:11:07.674Z,3.79
2018-12-17T08:13:35.336Z,3.77
2018-12-17T08:16:02.961Z,3.87
2018-12-17T08:18:30.533Z,3.89
2018-12-17T08:20:58.232Z,3.95
2018-12-17T08:23:25.755Z,4.05
2018-12-17T08:25:53.219Z,4.13
2018-12-17T08:28:20.745Z,4.19
2018-12-17T08:30:48.282Z,4.22
2018-12-17T08:33:15.819Z,4.26
2018-12-17T08:35:43.339Z,4.30
2018-12-17T08:38:10.937Z,4.29
2018-12-17T08:40:38.608Z,4.21
2018-12-17T08:43:06.523Z,4.14
2018-12-17T08:45:34.091Z,4.10
2018-12-17T08:48:02.383Z,4.10
2018-12-17T08:50:29.946Z,4.02
2018-12-17T08:52:57.523Z,4.08
2018-12-17T08:55:25.133Z,4.16
2018-12-17T08:57:52.638Z,4.23
2018-12-17T09:00:20.095Z,4.29
2018-12-17T09:02:47.699Z,4.21
2018-12-17T09:05:16.019Z,4.31
2018-12-17T09:07:43.546Z,4.32
2018-12-17T09:10:11.024Z,4.27
2018-12-17T09:12:38.591Z,4.35
2018-12-17T09:15:06.431Z,4.42
2018-12-17T09:17:33.909Z,4.48
2018-12-17T09:20:02.534Z,4.50
2018-12-17T09:22:30.142Z,4.53
2018-12-17T09:24:57.797Z,4.57
2018-12-17T09:27:25.385Z,4.65
2018-12-17T09:29:52.871Z,4.70
2018-12-17T09:32:20.452Z,4.72
2018-12-17T09:34:47.952Z,4.73
2018-12-17T09:37:16.048Z,4.72
2018-12-17T09:39:43.572Z,4.79
2018-12-17T09:42:11.054Z,4.84
2018-12-17T09:44:38.607Z,4.87
2018-12-17T09:47:06.139Z,4.89
2018-12-17T09:49:33.651Z,4.96
2018-12-17T09:52:01.625Z,4.99
2018-12-17T09:54:29.097Z,5.04
2018-12-17T09:56:56.690Z,5.08
2018-12-17T09:59:24.214Z,5.13
2018-12-17T10:01:52.073Z,5.15
2018-12-17T10:04:19.540Z,5.15
2018-12-17T10:06:47.112Z,5.15
2018-12-17T10:09:14.706Z,5.17
2018-12-17T10:11:42.267Z,5.20
2018-12-17T10:14:10.018Z,5.15
2018-12-17T10:16:37.613Z,5.17
2018-12-17T10:19:05.113Z,5.18
2018-12-17T10:21:32.820Z,5.18
2018-12-17T10:24:00.280Z,5.22
2018-12-17T10:26:27.970Z,5.26
2018-12-17T10:28:55.479Z,5.24
2018-12-17T10:31:22.951Z,5.22
2018-12-17T10:33:50.423Z,5.22
2018-12-17T10:36:17.888Z,5.21
2018-12-17T10:38:45.515Z,5.25
2018-12-17T10:41:13.317Z,5.32
2018-12-17T10:43:40.825Z,5.32
2018-12-17T10:46:08.442Z,5.35
2018-12-17T10:48:35.949Z,5.37
2018-12-17T10:51:03.648Z,5.37
2018-12-17T10:53:31.128Z,5.40
2018-12-17T10:55:58.723Z,5.41
2018-12-17T10:58:26.408Z,5.43
2018-12-17T11:00:59.640Z,5.46
2018-12-17T11:03:29.232Z,5.47
2018-12-17T11:05:57.487Z,5.52
2018-12-17T11:08:24.961Z,5.54
2018-12-17T11:10:52.521Z,5.48
2018-12-17T11:13:20.041Z,5.46
2018-12-17T11:15:47.610Z,5.51
2018-12-17T11:18:15.133Z,5.55
2018-12-17T11:20:42.759Z,5.56
2018-12-17T11:23:10.209Z,5.58
2018-12-17T11:25:37.684Z,5.63
2018-12-17T11:28:05.207Z,5.62
2018-12-17T11:30:32.759Z,5.63
2018-12-17T11:33:00.415Z,5.66
2018-12-17T11:35:27.910Z,5.70
2018-12-17T11:37:55.460Z,5.76
2018-12-17T11:40:23.017Z,5.77
2018-12-17T11:42:50.556Z,5.80
2018-12-17T11:45:18.116Z,5.79
2018-12-17T11:47:45.652Z,5.87
2018-12-17T11:50:13.267Z,5.90
2018-12-17T11:52:40.896Z,5.92
2018-12-17T11:55:08.687Z,5.94
2018-12-17T12:00:32.042Z,6.06
2018-12-17T12:02:59.603Z,6.12
2018-12-17T12:05:27.166Z,6.18
2018-12-17T12:07:54.728Z,6.18
2018-12-17T12:10:22.244Z,6.23
2018-12-17T12:12:49.752Z,6.26
2018-12-17T12:15:17.477Z,6.25
2018-12-17T12:17:45.168Z,6.28
2018-12-17T12:20:12.936Z,6.32
2018-12-17T12:22:40.486Z,6.35
2018-12-17T12:25:08.128Z,6.41
2018-12-17T12:27:35.583Z,6.48
2018-12-17T12:30:04.722Z,6.56
2018-12-17T12:32:32.185Z,6.61
2018-12-17T12:34:59.751Z,6.67
2018-12-17T12:37:27.234Z,6.69
2018-12-17T12:39:54.712Z,6.73
2018-12-17T12:42:22.218Z,6.73
2018-12-17T12:44:49.770Z,6.74
2018-12-17T12:47:17.369Z,6.73
2018-12-17T12:49:44.852Z,6.76
2018-12-17T12:52:12.333Z,6.76
2018-12-17T12:54:40.123Z,6.72
2018-12-17T12:57:07.728Z,6.74
2018-12-17T12:59:35.169Z,6.73
2018-12-17T13:02:02.666Z,6.74
2018-12-17T13:04:30.415Z,6.73
2018-12-17T13:06:57.918Z,6.77
2018-12-17T13:09:25.421Z,6.73
2018-12-17T13:11:53.053Z,6.75
2018-12-17T13:14:20.566Z,6.76
2018-12-17T13:16:48.232Z,6.71
2018-12-17T13:19:15.728Z,6.75
2018-12-17T13:21:43.256Z,6.77
2018-12-17T13:24:10.799Z,6.70
2018-12-17T13:26:38.355Z,6.59
2018-12-17T13:29:06.014Z,6.61
2018-12-17T13:31:33.475Z,6.64
2018-12-17T13:34:00.979Z,6.68
2018-12-17T13:36:28.727Z,6.72
2018-12-17T13:38:56.457Z,6.74
2018-12-17T13:41:24.225Z,6.74
2018-12-17T13:43:51.716Z,6.71
2018-12-17T13:46:19.544Z,6.74
2018-12-17T13:48:47.224Z,6.74
2018-12-17T13:54:15.234Z,6.69
2018-12-17T13:56:42.762Z,6.67
2018-12-17T13:59:10.231Z,6.65
2018-12-17T14:01:37.746Z,6.62
2018-12-17T14:04:06.584Z,6.60
2018-12-17T14:06:34.207Z,6.56
2018-12-17T14:09:02.262Z,6.54
2018-12-17T14:11:31.272Z,6.54
2018-12-17T14:13:58.960Z,6.54
2018-12-17T14:16:28.764Z,6.53
2018-12-17T14:19:02.066Z,6.53
2018-12-17T14:21:35.166Z,6.49
2018-12-17T14:24:02.819Z,6.47
2018-12-17T14:26:30.447Z,6.49
2018-12-17T14:28:57.906Z,6.49
2018-12-17T14:31:28.870Z,6.49
2018-12-17T14:33:54.999Z,6.50
2018-12-17T14:36:22.498Z,6.49
2018-12-17T14:38:50.047Z,6.47
2018-12-17T14:41:17.510Z,6.47
2018-12-17T14:43:45.104Z,6.48
2018-12-17T14:46:13.499Z,6.46
2018-12-17T14:48:41.014Z,6.48
2018-12-17T14:51:08.705Z,6.47
2018-12-17T14:53:36.343Z,6.49
2018-12-17T14:56:03.955Z,6.43
2018-12-17T14:58:31.515Z,6.46
2018-12-17T15:00:59.055Z,6.47
2018-12-17T15:03:26.503Z,6.44
2018-12-17T15:05:54.091Z,6.43
2018-12-17T15:08:21.519Z,6.46
2018-12-17T15:10:49.199Z,6.44
2018-12-17T15:13:16.741Z,6.43
2018-12-17T15:15:44.886Z,6.44
2018-12-17T15:18:12.790Z,6.44
2018-12-17T15:20:40.490Z,6.46
2018-12-17T15:23:08.178Z,6.46
2018-12-17T15:25:35.690Z,6.46
2018-12-17T15:28:03.165Z,6.46
2018-12-17T15:30:30.799Z,6.44
2018-12-17T15:32:58.273Z,6.43
2018-12-17T15:35:26.255Z,6.48
2018-12-17T15:37:53.810Z,6.48
2018-12-17T15:40:21.594Z,6.49
2018-12-17T15:42:49.268Z,6.50
2018-12-17T15:45:16.902Z,6.50
2018-12-17T15:47:44.588Z,6.51
2018-12-17T15:50:12.113Z,6.49
2018-12-17T15:52:39.580Z,6.50
2018-12-17T15:55:07.161Z,6.50
2018-12-17T15:57:34.606Z,6.51
2018-12-17T16:00:02.148Z,6.52
2018-12-17T16:02:29.854Z,6.51
2018-12-17T16:04:57.737Z,6.51
2018-12-17T16:07:26.120Z,6.51
2018-12-17T16:09:55.707Z,6.51
2018-12-17T16:12:23.348Z,6.50
2018-12-17T16:14:50.846Z,6.50
2018-12-17T16:17:18.356Z,6.49
2018-12-17T16:19:46.399Z,6.50
2018-12-17T16:22:13.943Z,6.48
2018-12-17T16:24:42.149Z,6.49
2018-12-17T16:27:09.763Z,6.49
2018-12-17T16:29:37.288Z,6.49
2018-12-17T16:32:04.846Z,6.49
2018-12-17T16:34:32.420Z,6.50
2018-12-17T16:37:00.114Z,6.47
2018-12-17T16:39:28.116Z,6.48
2018-12-17T16:41:55.669Z,6.48
2018-12-17T16:44:23.272Z,6.50
2018-12-17T16:46:50.888Z,6.51
2018-12-17T16:49:18.480Z,6.49
2018-12-17T16:51:46.051Z,6.50
2018-12-17T16:54:13.551Z,6.52
2018-12-17T16:56:41.124Z,6.52
2018-12-17T16:59:08.748Z,6.56
2018-12-17T17:01:36.371Z,6.59
2018-12-17T17:04:04.077Z,6.58
2018-12-17T17:06:31.589Z,6.54
2018-12-17T17:08:59.229Z,6.53
2018-12-17T17:11:26.696Z,6.53
2018-12-17T17:13:54.161Z,6.53
2018-12-17T17:16:21.855Z,6.52
2018-12-17T17:18:49.343Z,6.53
2018-12-17T17:21:16.799Z,6.53
2018-12-17T17:23:44.355Z,6.54
2018-12-17T17:26:11.864Z,6.54
2018-12-17T17:28:39.570Z,6.55
2018-12-17T17:31:07.260Z,6.55
2018-12-17T17:33:35.436Z,6.55
2018-12-17T17:36:02.976Z,6.56
2018-12-17T17:38:30.507Z,6.59
2018-12-17T17:40:57.966Z,6.58
2018-12-17T17:43:25.598Z,6.60
2018-12-17T17:45:53.287Z,6.61
2018-12-17T17:48:20.764Z,6.63
2018-12-17T17:50:48.600Z,6.62
2018-12-17T17:53:16.219Z,6.65
2018-12-17T17:55:43.819Z,6.66
2018-12-17T17:58:11.348Z,6.68
2018-12-17T18:00:38.829Z,6.69
2018-12-17T18:03:16.405Z,6.72
2018-12-17T18:05:44.180Z,6.70
2018-12-17T18:08:12.816Z,6.71
2018-12-17T18:10:40.331Z,6.70
2018-12-17T18:13:07.785Z,6.71
2018-12-17T18:15:35.313Z,6.72
2018-12-17T18:18:02.817Z,6.74
2018-12-17T18:20:30.292Z,6.76
2018-12-17T18:22:57.791Z,6.75
2018-12-17T18:25:25.406Z,6.77
2018-12-17T18:27:52.917Z,6.78
2018-12-17T18:30:20.560Z,6.78
2018-12-17T18:32:48.239Z,6.80
2018-12-17T18:35:16.267Z,6.84
2018-12-17T18:37:43.725Z,6.87
2018-12-17T18:40:11.351Z,6.85
2018-12-17T18:42:38.796Z,6.87
2018-12-17T18:45:08.096Z,6.90
2018-12-17T18:47:35.894Z,6.90
2018-12-17T18:50:04.373Z,6.89
2018-12-17T18:52:31.874Z,6.84
2018-12-17T18:54:59.487Z,6.78
2018-12-17T18:57:27.097Z,6.77
2018-12-17T18:59:54.669Z,6.76
2018-12-17T19:02:22.292Z,6.76
2018-12-17T19:04:51.607Z,6.77
2018-12-17T19:07:19.056Z,6.79
2018-12-17T19:09:46.672Z,6.76
2018-12-17T19:12:14.185Z,6.78
2018-12-17T19:14:41.672Z,6.80
2018-12-17T19:17:09.410Z,6.82
2018-12-17T19:19:37.789Z,6.81
2018-12-17T19:22:05.279Z,6.83
2018-12-17T19:24:32.746Z,6.81
2018-12-17T19:27:00.859Z,6.82
2018-12-17T19:29:28.997Z,6.81
2018-12-17T19:31:57.373Z,6.83
2018-12-17T19:34:25.279Z,6.84
2018-12-17T19:36:52.808Z,6.85
2018-12-17T19:39:20.291Z,6.87
2018-12-17T19:41:47.760Z,6.87
2018-12-17T19:44:15.631Z,6.89
2018-12-17T19:46:43.130Z,6.88
2018-12-17T19:49:10.856Z,6.89
2018-12-17T19:51:38.382Z,6.91
2018-12-17T19:54:06.636Z,6.88
2018-12-17T19:56:36.808Z,6.91
2018-12-17T19:59:04.533Z,6.93
2018-12-17T20:01:32.103Z,6.91
2018-12-17T20:03:59.630Z,6.84
2018-12-17T20:06:27.123Z,6.87
2018-12-17T20:08:54.999Z,6.91
2018-12-17T20:11:22.650Z,6.88
2018-12-17T20:13:50.149Z,6.91
2018-12-17T20:16:17.793Z,6.93
2018-12-17T20:18:47.087Z,6.94
2018-12-17T20:21:14.747Z,6.96
2018-12-17T20:23:42.295Z,6.97
2018-12-17T20:26:10.642Z,6.98
2018-12-17T20:28:38.138Z,7.00
2018-12-17T20:31:06.021Z,7.03
2018-12-17T20:33:34.479Z,7.04
2018-12-17T20:36:02.153Z,7.04
2018-12-17T20:38:29.828Z,7.06
2018-12-17T20:40:57.409Z,7.06
2018-12-17T20:43:25.756Z,7.08
2018-12-17T20:45:53.297Z,7.08
2018-12-17T20:48:20.774Z,7.08
2018-12-17T20:50:48.232Z,7.09
2018-12-17T20:53:15.757Z,7.08
2018-12-17T20:55:43.248Z,7.09
2018-12-17T20:58:10.968Z,7.05
2018-12-17T21:00:38.625Z,7.07
2018-12-17T21:03:06.162Z,7.08
2018-12-17T21:05:33.947Z,7.08
2018-12-17T21:08:01.443Z,7.12
2018-12-17T21:10:28.901Z,7.13
2018-12-17T21:12:56.380Z,7.16
2018-12-17T21:15:23.860Z,7.14
2018-12-17T21:17:51.672Z,7.16
2018-12-17T21:20:19.330Z,7.16
2018-12-17T21:22:47.706Z,7.17
2018-12-17T21:25:15.275Z,7.15
2018-12-17T21:27:43.136Z,7.15
2018-12-17T21:30:11.548Z,7.14
2018-12-17T21:32:39.021Z,7.13
2018-12-17T21:35:06.873Z,7.10
2018-12-17T21:37:34.494Z,7.12
2018-12-17T21:42:57.793Z,7.13
2018-12-17T21:45:25.363Z,7.14
2018-12-17T21:47:53.004Z,7.15
2018-12-17T21:50:20.590Z,7.16
2018-12-17T21:52:48.221Z,7.20
2018-12-17T21:55:16.599Z,7.17
2018-12-17T21:57:44.147Z,7.15
2018-12-17T22:00:11.805Z,7.14
2018-12-17T22:02:39.274Z,7.15
2018-12-17T22:05:06.956Z,7.13
2018-12-17T22:07:34.538Z,7.13
2018-12-17T22:10:02.007Z,7.16
2018-12-17T22:12:29.612Z,7.16
2018-12-17T22:14:57.285Z,7.14
2018-12-17T22:17:24.794Z,7.14
2018-12-17T22:19:52.409Z,7.14
2018-12-17T22:22:19.884Z,7.15
2018-12-17T22:24:47.383Z,7.19
2018-12-17T22:27:14.860Z,7.18
2018-12-17T22:29:42.329Z,7.17
2018-12-17T22:32:09.948Z,7.17
2018-12-17T22:34:37.387Z,7.18
2018-12-17T22:37:04.908Z,7.15
2018-12-17T22:39:32.482Z,7.15
2018-12-17T22:42:00.002Z,7.16
2018-12-17T22:44:27.523Z,7.16
2018-12-17T22:46:55.143Z,7.19
2018-12-17T22:49:22.649Z,7.22
2018-12-17T22:51:50.151Z,7.21
2018-12-17T22:54:17.590Z,7.20
2018-12-17T22:56:45.066Z,7.21
2018-12-17T22:59:12.537Z,7.24
2018-12-17T23:01:40.180Z,7.21
2018-12-17T23:04:07.760Z,7.22
2018-12-17T23:06:35.388Z,7.24
2018-12-17T23:09:05.219Z,7.25
2018-12-17T23:11:50.306Z,7.23
2018-12-17T23:14:29.741Z,7.24
2018-12-17T23:17:09.165Z,7.23
2018-12-17T23:19:41.368Z,7.23
2018-12-17T23:22:09.967Z,7.23
2018-12-17T23:24:38.101Z,7.27
2018-12-17T23:27:09.161Z,7.30
2018-12-17T23:29:38.153Z,7.30
2018-12-17T23:32:06.074Z,7.30
2018-12-17T23:34:34.191Z,7.32
2018-12-17T23:37:02.472Z,7.31
2018-12-17T23:39:31.023Z,7.30
2018-12-17T23:41:58.643Z,7.31
2018-12-17T23:44:26.121Z,7.29
2018-12-17T23:46:53.634Z,7.30
2018-12-17T23:49:21.605Z,7.33
2018-12-17T23:51:50.602Z,7.34
2018-12-17T23:54:18.146Z,7.34
2018-12-17T23:56:45.718Z,7.37
2018-12-17T23:59:13.421Z,7.37
